FW7781 Weather Reports


Display with metric or nautical units.
time (UTC)temp
F
wind
direction
speed
MPH
gust
MPH
rain 1hr
in
rain 24hr
in
rain mn
in
humidity
%
barometer
mb
20221005120912 67 0.0 0.0 0.00 0.00 0.00 66 1012.8
20221005115913 66 0.0 0.0 0.00 0.00 0.00 69 1013.0
20221005114912 66 0.0 0.0 0.00 0.00 0.00 69 1013.2
20221005113912 65 0.0 0.0 0.00 0.00 0.00 69 1013.3
20221005112912 65 0.0 0.0 0.00 0.00 0.00 71 1013.5
20221005111914 65 0.0 0.0 0.00 0.00 0.00 70 1013.5
20221005110912 64 0.0 0.0 0.00 0.00 0.00 72 1013.4
20221005105912 64 0.0 0.0 0.00 0.00 0.00 72 1013.8
20221005104912 63 0.0 0.0 0.00 0.00 0.00 73 1013.8
20221005103912 63 0.0 0.0 0.00 0.00 0.00 73 1013.6
20221005102912 63 0.0 0.0 0.00 0.00 0.00 72 1013.6
20221005101913 63 0.0 0.0 0.00 0.00 0.00 73 1013.7
20221005100912 63 0.0 0.0 0.00 0.00 0.00 73 1013.8
20221004201156 55 0.0 0.0 0.00 0.00 0.00 99 1017.2
20221004193914 55 0.0 0.0 0.00 0.00 0.00 99 1017.2
20221004192914 55 0.0 0.0 0.00 0.00 0.00 99 1017.3
20221004191912 55 0.0 0.0 0.00 0.00 0.00 98 1017.2
20221004190913 55 0.0 0.0 0.00 0.00 0.00 98 1017.4
20221004185914 55 0.0 0.0 0.00 0.00 0.00 97 1017.2
20221004184911 56 0.0 0.0 0.00 0.00 0.00 97 1017.3
20221004183913 56 0.0 0.0 0.00 0.00 0.00 97 1017.2
20221004182914 56 0.0 0.0 0.00 0.00 0.00 96 1017.1
20221004181911 56 0.0 0.0 0.00 0.00 0.00 94 1017.1
20221004180912 56 0.0 0.0 0.00 0.00 0.00 94 1017.2
20221004175913 57 0.0 0.0 0.00 0.00 0.00 93 1017.2
20221004174912 57 0.0 0.0 0.00 0.00 0.00 92 1017.5
20221004173912 57 0.0 0.0 0.00 0.00 0.00 92 1017.4
20221004172912 58 0.0 0.0 0.00 0.00 0.00 91 1017.1
20221004161912 60 0.0 0.0 0.00 0.00 0.00 84 1017.0
20221004160912 60 0.0 0.0 0.00 0.00 0.00 82 1017.1
20221004155913 61 0.0 0.0 0.00 0.00 0.00 80 1017.1
20221004154913 61 0.0 0.0 0.00 0.00 0.00 78 1017.0
20221004153912 62 0.0 0.0 0.00 0.00 0.00 79 1017.1
20221004152912 62 0.0 0.0 0.00 0.00 0.00 79 1017.1
20221004151915 61 0.0 0.0 0.00 0.00 0.00 80 1017.0
20221004150919 61 0.0 0.0 0.00 0.00 0.00 78 1017.1
20221004145914 62 0.0 0.0 0.00 0.00 0.00 77 1017.1
20221004144913 62 0.0 0.0 0.00 0.00 0.00 77 1017.3
20221004143915 62 0.0 0.0 0.00 0.00 0.00 76 1017.3
20221004142915 62 0.0 0.0 0.00 0.00 0.00 76 1017.4
20221004141912 62 0.0 0.0 0.00 0.00 0.00 74 1017.4
20221004140912 62 0.0 0.0 0.00 0.00 0.00 72 1017.5
20221004135916 63 0.0 0.0 0.00 0.00 0.00 73 1017.5
20221004134914 63 0.0 0.0 0.00 0.00 0.00 70 1017.5
20221004133914 63 0.0 0.0 0.00 0.00 0.00 73 1017.5
20221004132912 63 0.0 0.0 0.00 0.00 0.00 75 1017.8
20221004131913 63 0.0 0.0 0.00 0.00 0.00 71 1017.7
20221004130912 63 0.0 0.0 0.00 0.00 0.00 73 1017.8
20221004125912 63 0.0 0.0 0.00 0.00 0.00 74 1017.7
20221004124913 64 0.0 0.0 0.00 0.00 0.00 71 1017.8
20221004123914 64 0.0 0.0 0.00 0.00 0.00 72 1017.9
20221004122912 65 0.0 0.0 0.00 0.00 0.00 71 1017.9
20221004121913 65 0.0 0.0 0.00 0.00 0.00 70 1017.8